Main page
METAR-TAF:

METAR-TAF

Airports :

Iğdır Airport

Iğdır, Turkey

latitude: 39-58-36N, longitude: 43-52-36E, elevation: 945 m

Current weather observation

The report was made 1 hour and 0 minutes ago, at 14:50 UTC
Wind 6 kt from the East, varying between East/Northeast and East/Southeast
Temperature 24°C
Humidity 24%
Pressure 1013 hPa
Visibility 10 km or more
no clouds below 1500 m and no cumulonimbus

METAR: LTCT 171450Z 08006KT 060V120 CAVOK 24/02 Q1013

Time: 18:50 (15:50 UTC)

Forecast

The report was made 2 hours and 10 minutes ago, at 13:40 UTC
Forecast valid from 17 at 15 UTC to 17 at 24 UTC
Wind 12 kt from the East
Visibility 10 km or more
no clouds below 1500 m and no cumulonimbus
Becoming
from 17 at 16 UTC to 17 at 18 UTC
Wind 2 kt from variable directions

TAF: LTCT 171340Z 1715/1724 09012KT CAVOK BECMG 1716/1718 VRB02KT

Weather observations and forecasts of more than 4000 airports (METAR and TAF reports).

The available stations are represented by yellow and red dots on the map.

Hover mouse over dot to see the name of the station.

Then click to see weather observations and forecasts.

To change the map : click on the green buttons with a black cross to zoom in, on the green button with a dash to zoom out, or on the green arrows for adjacent maps.


METAR-TAF: